sensor_id;sensor_type;location;lat;lon;timestamp;P1;durP1;ratioP1;P2;durP2;ratioP2
26750;SDS011;14345;48.272;25.926;2023-06-19T00:01:18;2.58;;;2.38;;
26750;SDS011;14345;48.272;25.926;2023-06-19T00:03:44;3.38;;;2.40;;
26750;SDS011;14345;48.272;25.926;2023-06-19T00:06:10;2.40;;;2.13;;
26750;SDS011;14345;48.272;25.926;2023-06-19T00:08:38;2.92;;;2.22;;
26750;SDS011;14345;48.272;25.926;2023-06-19T00:11:06;2.67;;;2.47;;
26750;SDS011;14345;48.272;25.926;2023-06-19T00:13:32;3.28;;;2.60;;
26750;SDS011;14345;48.272;25.926;2023-06-19T00:16:01;5.75;;;2.58;;
26750;SDS011;14345;48.272;25.926;2023-06-19T00:18:28;4.03;;;2.30;;
26750;SDS011;14345;48.272;25.926;2023-06-19T00:20:54;2.60;;;2.38;;
26750;SDS011;14345;48.272;25.926;2023-06-19T00:23:21;2.47;;;2.08;;
26750;SDS011;14345;48.272;25.926;2023-06-19T00:25:47;2.88;;;2.28;;
26750;SDS011;14345;48.272;25.926;2023-06-19T00:28:13;2.03;;;1.83;;
26750;SDS011;14345;48.272;25.926;2023-06-19T00:30:40;2.40;;;2.20;;
26750;SDS011;14345;48.272;25.926;2023-06-19T00:33:06;2.20;;;2.00;;
26750;SDS011;14345;48.272;25.926;2023-06-19T00:35:33;3.20;;;2.03;;
26750;SDS011;14345;48.272;25.926;2023-06-19T00:37:59;1.90;;;1.80;;
26750;SDS011;14345;48.272;25.926;2023-06-19T00:40:29;1.73;;;1.63;;
26750;SDS011;14345;48.272;25.926;2023-06-19T00:42:55;2.20;;;2.10;;
26750;SDS011;14345;48.272;25.926;2023-06-19T00:45:21;2.75;;;2.42;;
26750;SDS011;14345;48.272;25.926;2023-06-19T00:47:49;4.13;;;2.90;;
26750;SDS011;14345;48.272;25.926;2023-06-19T00:50:15;2.50;;;2.30;;
26750;SDS011;14345;48.272;25.926;2023-06-19T00:52:41;3.03;;;2.67;;
26750;SDS011;14345;48.272;25.926;2023-06-19T00:55:08;3.17;;;2.88;;
26750;SDS011;14345;48.272;25.926;2023-06-19T00:57:34;4.80;;;3.55;;
26750;SDS011;14345;48.272;25.926;2023-06-19T01:00:01;4.05;;;3.65;;
26750;SDS011;14345;48.272;25.926;2023-06-19T01:02:29;4.40;;;3.50;;
26750;SDS011;14345;48.272;25.926;2023-06-19T01:04:56;4.30;;;3.90;;
26750;SDS011;14345;48.272;25.926;2023-06-19T01:07:27;3.83;;;3.42;;
26750;SDS011;14345;48.272;25.926;2023-06-19T01:09:56;5.30;;;3.60;;
26750;SDS011;14345;48.272;25.926;2023-06-19T01:12:30;4.13;;;3.72;;
26750;SDS011;14345;48.272;25.926;2023-06-19T01:15:00;4.10;;;3.70;;
26750;SDS011;14345;48.272;25.926;2023-06-19T01:17:26;4.25;;;3.70;;
26750;SDS011;14345;48.272;25.926;2023-06-19T01:19:54;4.97;;;4.47;;
26750;SDS011;14345;48.272;25.926;2023-06-19T01:22:30;5.13;;;4.25;;
26750;SDS011;14345;48.272;25.926;2023-06-19T01:24:56;6.45;;;4.95;;
26750;SDS011;14345;48.272;25.926;2023-06-19T01:27:23;4.65;;;4.15;;
26750;SDS011;14345;48.272;25.926;2023-06-19T01:29:50;6.43;;;4.55;;
26750;SDS011;14345;48.272;25.926;2023-06-19T01:32:20;4.57;;;4.07;;
26750;SDS011;14345;48.272;25.926;2023-06-19T01:34:48;6.35;;;5.15;;
26750;SDS011;14345;48.272;25.926;2023-06-19T01:37:14;5.93;;;5.38;;
26750;SDS011;14345;48.272;25.926;2023-06-19T01:39:40;6.65;;;5.97;;
26750;SDS011;14345;48.272;25.926;2023-06-19T01:42:07;6.63;;;5.95;;
26750;SDS011;14345;48.272;25.926;2023-06-19T01:44:36;7.65;;;6.93;;
26750;SDS011;14345;48.272;25.926;2023-06-19T01:47:11;7.90;;;7.07;;
26750;SDS011;14345;48.272;25.926;2023-06-19T01:49:37;8.95;;;6.65;;
26750;SDS011;14345;48.272;25.926;2023-06-19T01:52:04;7.47;;;6.78;;
26750;SDS011;14345;48.272;25.926;2023-06-19T01:54:30;6.82;;;6.22;;
26750;SDS011;14345;48.272;25.926;2023-06-19T01:56:56;7.32;;;6.63;;
26750;SDS011;14345;48.272;25.926;2023-06-19T01:59:23;6.40;;;5.80;;
26750;SDS011;14345;48.272;25.926;2023-06-19T02:01:48;6.53;;;5.93;;
26750;SDS011;14345;48.272;25.926;2023-06-19T02:04:14;6.20;;;5.60;;
26750;SDS011;14345;48.272;25.926;2023-06-19T02:06:40;10.07;;;6.13;;
26750;SDS011;14345;48.272;25.926;2023-06-19T02:09:06;9.07;;;5.88;;
26750;SDS011;14345;48.272;25.926;2023-06-19T02:11:33;6.00;;;5.43;;
26750;SDS011;14345;48.272;25.926;2023-06-19T02:13:59;5.90;;;5.30;;
26750;SDS011;14345;48.272;25.926;2023-06-19T02:16:25;6.40;;;5.80;;
26750;SDS011;14345;48.272;25.926;2023-06-19T02:18:51;6.30;;;5.70;;
26750;SDS011;14345;48.272;25.926;2023-06-19T02:21:17;7.97;;;5.45;;
26750;SDS011;14345;48.272;25.926;2023-06-19T02:23:43;6.78;;;5.20;;
26750;SDS011;14345;48.272;25.926;2023-06-19T02:26:09;7.68;;;5.60;;
26750;SDS011;14345;48.272;25.926;2023-06-19T02:28:35;5.88;;;5.38;;
26750;SDS011;14345;48.272;25.926;2023-06-19T02:31:01;5.95;;;5.30;;
26750;SDS011;14345;48.272;25.926;2023-06-19T02:33:27;6.75;;;6.10;;
26750;SDS011;14345;48.272;25.926;2023-06-19T02:35:53;7.30;;;5.40;;
26750;SDS011;14345;48.272;25.926;2023-06-19T02:38:23;5.65;;;5.15;;
26750;SDS011;14345;48.272;25.926;2023-06-19T02:40:50;7.75;;;5.38;;
26750;SDS011;14345;48.272;25.926;2023-06-19T02:43:16;6.50;;;5.68;;
26750;SDS011;14345;48.272;25.926;2023-06-19T02:45:41;8.38;;;5.90;;
26750;SDS011;14345;48.272;25.926;2023-06-19T02:48:07;6.03;;;5.43;;
26750;SDS011;14345;48.272;25.926;2023-06-19T02:50:35;6.90;;;6.20;;
26750;SDS011;14345;48.272;25.926;2023-06-19T02:53:00;11.77;;;8.40;;
26750;SDS011;14345;48.272;25.926;2023-06-19T02:55:26;9.93;;;7.78;;
26750;SDS011;14345;48.272;25.926;2023-06-19T02:57:52;7.38;;;6.63;;
26750;SDS011;14345;48.272;25.926;2023-06-19T03:00:19;6.20;;;5.60;;
26750;SDS011;14345;48.272;25.926;2023-06-19T03:02:45;7.65;;;6.78;;
26750;SDS011;14345;48.272;25.926;2023-06-19T03:05:13;7.05;;;6.35;;
26750;SDS011;14345;48.272;25.926;2023-06-19T03:07:40;7.07;;;6.15;;
26750;SDS011;14345;48.272;25.926;2023-06-19T03:10:06;6.63;;;6.03;;
26750;SDS011;14345;48.272;25.926;2023-06-19T03:12:33;7.32;;;5.70;;
26750;SDS011;14345;48.272;25.926;2023-06-19T03:14:59;5.70;;;5.10;;
26750;SDS011;14345;48.272;25.926;2023-06-19T03:17:25;5.40;;;4.88;;
26750;SDS011;14345;48.272;25.926;2023-06-19T03:19:51;6.18;;;4.63;;
26750;SDS011;14345;48.272;25.926;2023-06-19T03:22:17;5.20;;;4.70;;
26750;SDS011;14345;48.272;25.926;2023-06-19T03:24:43;7.45;;;4.55;;
26750;SDS011;14345;48.272;25.926;2023-06-19T03:27:09;4.95;;;4.53;;
26750;SDS011;14345;48.272;25.926;2023-06-19T03:29:35;4.50;;;4.10;;
26750;SDS011;14345;48.272;25.926;2023-06-19T03:32:01;4.80;;;4.32;;
26750;SDS011;14345;48.272;25.926;2023-06-19T03:34:27;5.57;;;4.50;;
26750;SDS011;14345;48.272;25.926;2023-06-19T03:36:53;4.43;;;4.03;;
26750;SDS011;14345;48.272;25.926;2023-06-19T03:39:19;5.30;;;4.35;;
26750;SDS011;14345;48.272;25.926;2023-06-19T03:41:45;4.00;;;3.60;;
26750;SDS011;14345;48.272;25.926;2023-06-19T03:44:11;6.00;;;4.13;;
26750;SDS011;14345;48.272;25.926;2023-06-19T03:46:37;4.80;;;4.05;;
26750;SDS011;14345;48.272;25.926;2023-06-19T03:49:03;6.88;;;4.18;;
26750;SDS011;14345;48.272;25.926;2023-06-19T03:51:29;4.75;;;4.30;;
26750;SDS011;14345;48.272;25.926;2023-06-19T03:53:55;4.97;;;4.57;;
26750;SDS011;14345;48.272;25.926;2023-06-19T03:56:21;5.72;;;4.15;;
26750;SDS011;14345;48.272;25.926;2023-06-19T03:58:47;4.95;;;4.10;;
26750;SDS011;14345;48.272;25.926;2023-06-19T04:01:13;4.38;;;3.97;;
26750;SDS011;14345;48.272;25.926;2023-06-19T04:03:39;5.70;;;3.70;;
26750;SDS011;14345;48.272;25.926;2023-06-19T04:06:05;4.00;;;3.47;;
26750;SDS011;14345;48.272;25.926;2023-06-19T04:08:32;4.13;;;3.58;;
26750;SDS011;14345;48.272;25.926;2023-06-19T04:10:58;4.95;;;3.83;;
26750;SDS011;14345;48.272;25.926;2023-06-19T04:13:24;4.75;;;3.47;;
26750;SDS011;14345;48.272;25.926;2023-06-19T04:15:53;3.92;;;3.53;;
26750;SDS011;14345;48.272;25.926;2023-06-19T04:18:19;4.30;;;3.85;;
26750;SDS011;14345;48.272;25.926;2023-06-19T04:20:45;4.15;;;3.75;;
26750;SDS011;14345;48.272;25.926;2023-06-19T04:23:11;4.65;;;4.13;;
26750;SDS011;14345;48.272;25.926;2023-06-19T04:25:38;4.60;;;4.00;;
26750;SDS011;14345;48.272;25.926;2023-06-19T04:28:04;6.28;;;5.03;;
26750;SDS011;14345;48.272;25.926;2023-06-19T04:30:30;4.10;;;3.47;;
26750;SDS011;14345;48.272;25.926;2023-06-19T04:32:59;4.53;;;3.85;;
26750;SDS011;14345;48.272;25.926;2023-06-19T04:35:25;5.68;;;4.25;;
26750;SDS011;14345;48.272;25.926;2023-06-19T04:37:52;4.35;;;3.95;;
26750;SDS011;14345;48.272;25.926;2023-06-19T04:40:18;5.28;;;3.83;;
26750;SDS011;14345;48.272;25.926;2023-06-19T04:42:44;4.88;;;4.38;;
26750;SDS011;14345;48.272;25.926;2023-06-19T04:45:10;5.30;;;4.15;;
26750;SDS011;14345;48.272;25.926;2023-06-19T04:47:36;5.22;;;4.10;;
26750;SDS011;14345;48.272;25.926;2023-06-19T04:50:04;4.07;;;3.47;;
26750;SDS011;14345;48.272;25.926;2023-06-19T04:52:30;4.38;;;3.58;;
26750;SDS011;14345;48.272;25.926;2023-06-19T04:54:58;4.03;;;3.63;;
26750;SDS011;14345;48.272;25.926;2023-06-19T04:57:24;3.70;;;3.40;;
26750;SDS011;14345;48.272;25.926;2023-06-19T04:59:50;4.10;;;3.70;;
26750;SDS011;14345;48.272;25.926;2023-06-19T05:02:16;4.70;;;3.50;;
26750;SDS011;14345;48.272;25.926;2023-06-19T05:04:42;4.30;;;3.63;;
26750;SDS011;14345;48.272;25.926;2023-06-19T05:07:09;4.70;;;3.80;;
26750;SDS011;14345;48.272;25.926;2023-06-19T05:09:35;7.90;;;3.70;;
26750;SDS011;14345;48.272;25.926;2023-06-19T05:12:01;3.75;;;3.45;;
26750;SDS011;14345;48.272;25.926;2023-06-19T05:14:27;4.03;;;3.63;;
26750;SDS011;14345;48.272;25.926;2023-06-19T05:16:53;5.10;;;4.45;;
26750;SDS011;14345;48.272;25.926;2023-06-19T05:19:19;3.92;;;3.42;;
26750;SDS011;14345;48.272;25.926;2023-06-19T05:21:45;5.15;;;4.07;;
26750;SDS011;14345;48.272;25.926;2023-06-19T05:24:11;4.00;;;3.70;;
26750;SDS011;14345;48.272;25.926;2023-06-19T05:26:38;6.90;;;4.10;;
26750;SDS011;14345;48.272;25.926;2023-06-19T05:29:04;4.40;;;4.00;;
26750;SDS011;14345;48.272;25.926;2023-06-19T05:31:33;4.93;;;4.47;;
26750;SDS011;14345;48.272;25.926;2023-06-19T05:33:59;5.00;;;4.32;;
26750;SDS011;14345;48.272;25.926;2023-06-19T05:36:25;6.40;;;3.80;;
26750;SDS011;14345;48.272;25.926;2023-06-19T05:38:51;4.40;;;4.00;;
26750;SDS011;14345;48.272;25.926;2023-06-19T05:41:17;4.38;;;3.97;;
26750;SDS011;14345;48.272;25.926;2023-06-19T05:43:43;4.47;;;4.00;;
26750;SDS011;14345;48.272;25.926;2023-06-19T05:46:09;4.82;;;4.35;;
26750;SDS011;14345;48.272;25.926;2023-06-19T05:48:36;5.90;;;4.30;;
26750;SDS011;14345;48.272;25.926;2023-06-19T05:51:02;4.25;;;3.85;;
26750;SDS011;14345;48.272;25.926;2023-06-19T05:53:28;7.85;;;4.25;;
26750;SDS011;14345;48.272;25.926;2023-06-19T05:55:56;4.70;;;4.05;;
26750;SDS011;14345;48.272;25.926;2023-06-19T05:58:23;5.63;;;4.72;;
26750;SDS011;14345;48.272;25.926;2023-06-19T06:00:50;4.60;;;4.18;;
26750;SDS011;14345;48.272;25.926;2023-06-19T06:03:22;4.38;;;3.95;;
26750;SDS011;14345;48.272;25.926;2023-06-19T06:05:49;4.57;;;4.13;;
26750;SDS011;14345;48.272;25.926;2023-06-19T06:08:15;4.88;;;4.47;;
26750;SDS011;14345;48.272;25.926;2023-06-19T06:10:41;6.65;;;4.90;;
26750;SDS011;14345;48.272;25.926;2023-06-19T06:13:07;5.90;;;4.78;;
26750;SDS011;14345;48.272;25.926;2023-06-19T06:15:33;4.65;;;4.07;;
26750;SDS011;14345;48.272;25.926;2023-06-19T06:17:59;4.65;;;4.25;;
26750;SDS011;14345;48.272;25.926;2023-06-19T06:20:25;4.50;;;3.97;;
26750;SDS011;14345;48.272;25.926;2023-06-19T06:22:52;5.30;;;4.80;;
26750;SDS011;14345;48.272;25.926;2023-06-19T06:25:18;6.30;;;3.97;;
26750;SDS011;14345;48.272;25.926;2023-06-19T06:27:45;4.60;;;4.20;;
26750;SDS011;14345;48.272;25.926;2023-06-19T06:30:11;5.18;;;4.50;;
26750;SDS011;14345;48.272;25.926;2023-06-19T06:32:37;5.07;;;4.57;;
26750;SDS011;14345;48.272;25.926;2023-06-19T06:35:03;5.70;;;5.13;;
26750;SDS011;14345;48.272;25.926;2023-06-19T06:37:29;5.40;;;4.90;;
26750;SDS011;14345;48.272;25.926;2023-06-19T06:39:55;4.18;;;3.78;;
26750;SDS011;14345;48.272;25.926;2023-06-19T06:42:21;5.43;;;4.93;;
26750;SDS011;14345;48.272;25.926;2023-06-19T06:44:48;6.47;;;5.00;;
26750;SDS011;14345;48.272;25.926;2023-06-19T06:47:14;6.93;;;5.50;;
26750;SDS011;14345;48.272;25.926;2023-06-19T06:49:40;5.40;;;4.90;;
26750;SDS011;14345;48.272;25.926;2023-06-19T06:52:06;5.45;;;4.88;;
26750;SDS011;14345;48.272;25.926;2023-06-19T06:54:32;6.32;;;4.85;;
26750;SDS011;14345;48.272;25.926;2023-06-19T06:56:58;11.23;;;4.57;;
26750;SDS011;14345;48.272;25.926;2023-06-19T06:59:25;6.50;;;4.88;;
26750;SDS011;14345;48.272;25.926;2023-06-19T07:01:54;5.43;;;4.70;;
26750;SDS011;14345;48.272;25.926;2023-06-19T07:04:21;4.93;;;4.43;;
26750;SDS011;14345;48.272;25.926;2023-06-19T07:06:47;5.78;;;4.65;;
26750;SDS011;14345;48.272;25.926;2023-06-19T07:09:13;5.13;;;4.68;;
26750;SDS011;14345;48.272;25.926;2023-06-19T07:11:42;5.05;;;4.55;;
26750;SDS011;14345;48.272;25.926;2023-06-19T07:14:08;5.18;;;4.68;;
26750;SDS011;14345;48.272;25.926;2023-06-19T07:16:35;6.38;;;4.53;;
26750;SDS011;14345;48.272;25.926;2023-06-19T07:19:01;6.97;;;5.18;;
26750;SDS011;14345;48.272;25.926;2023-06-19T07:21:27;5.32;;;4.80;;
26750;SDS011;14345;48.272;25.926;2023-06-19T07:23:53;7.45;;;4.90;;
26750;SDS011;14345;48.272;25.926;2023-06-19T07:26:19;5.75;;;4.60;;
26750;SDS011;14345;48.272;25.926;2023-06-19T07:28:45;7.55;;;5.03;;
26750;SDS011;14345;48.272;25.926;2023-06-19T07:31:11;7.45;;;4.70;;
26750;SDS011;14345;48.272;25.926;2023-06-19T07:33:37;8.32;;;5.65;;
26750;SDS011;14345;48.272;25.926;2023-06-19T07:36:03;5.43;;;4.93;;
26750;SDS011;14345;48.272;25.926;2023-06-19T07:38:29;6.30;;;5.50;;
26750;SDS011;14345;48.272;25.926;2023-06-19T07:40:55;8.20;;;5.22;;
26750;SDS011;14345;48.272;25.926;2023-06-19T07:43:22;6.88;;;5.60;;
26750;SDS011;14345;48.272;25.926;2023-06-19T07:45:48;5.40;;;4.90;;
26750;SDS011;14345;48.272;25.926;2023-06-19T07:48:14;5.68;;;4.82;;
26750;SDS011;14345;48.272;25.926;2023-06-19T07:50:40;5.10;;;4.60;;
26750;SDS011;14345;48.272;25.926;2023-06-19T07:53:06;6.47;;;4.90;;
26750;SDS011;14345;48.272;25.926;2023-06-19T07:55:32;8.30;;;4.88;;
26750;SDS011;14345;48.272;25.926;2023-06-19T07:58:00;5.60;;;5.00;;
26750;SDS011;14345;48.272;25.926;2023-06-19T08:00:26;6.10;;;4.72;;
26750;SDS011;14345;48.272;25.926;2023-06-19T08:02:52;5.57;;;4.82;;
26750;SDS011;14345;48.272;25.926;2023-06-19T08:05:18;5.78;;;5.18;;
26750;SDS011;14345;48.272;25.926;2023-06-19T08:07:44;5.55;;;5.05;;
26750;SDS011;14345;48.272;25.926;2023-06-19T08:10:10;5.43;;;4.82;;
26750;SDS011;14345;48.272;25.926;2023-06-19T08:12:36;5.03;;;4.50;;
26750;SDS011;14345;48.272;25.926;2023-06-19T08:15:02;5.13;;;4.50;;
26750;SDS011;14345;48.272;25.926;2023-06-19T08:17:28;6.50;;;4.45;;
26750;SDS011;14345;48.272;25.926;2023-06-19T08:19:54;6.40;;;5.07;;
26750;SDS011;14345;48.272;25.926;2023-06-19T08:22:20;5.82;;;5.20;;
26750;SDS011;14345;48.272;25.926;2023-06-19T08:24:47;6.00;;;4.78;;
26750;SDS011;14345;48.272;25.926;2023-06-19T08:27:13;6.30;;;4.85;;
26750;SDS011;14345;48.272;25.926;2023-06-19T08:29:39;6.03;;;5.50;;
26750;SDS011;14345;48.272;25.926;2023-06-19T08:32:05;7.18;;;5.63;;
26750;SDS011;14345;48.272;25.926;2023-06-19T08:34:33;6.05;;;5.43;;
26750;SDS011;14345;48.272;25.926;2023-06-19T08:36:59;5.70;;;4.95;;
26750;SDS011;14345;48.272;25.926;2023-06-19T08:39:25;6.18;;;5.57;;
26750;SDS011;14345;48.272;25.926;2023-06-19T08:41:51;5.55;;;5.05;;
26750;SDS011;14345;48.272;25.926;2023-06-19T08:44:18;6.00;;;5.40;;
26750;SDS011;14345;48.272;25.926;2023-06-19T08:46:44;6.65;;;6.05;;
26750;SDS011;14345;48.272;25.926;2023-06-19T08:49:10;6.22;;;5.65;;
26750;SDS011;14345;48.272;25.926;2023-06-19T08:51:36;6.25;;;5.65;;
26750;SDS011;14345;48.272;25.926;2023-06-19T08:54:03;6.93;;;5.75;;
26750;SDS011;14345;48.272;25.926;2023-06-19T08:56:30;7.07;;;6.20;;
26750;SDS011;14345;48.272;25.926;2023-06-19T08:59:18;7.53;;;6.18;;
26750;SDS011;14345;48.272;25.926;2023-06-19T09:01:48;5.63;;;5.13;;
26750;SDS011;14345;48.272;25.926;2023-06-19T09:04:18;7.07;;;6.37;;
26750;SDS011;14345;48.272;25.926;2023-06-19T09:06:54;8.13;;;5.57;;
26750;SDS011;14345;48.272;25.926;2023-06-19T09:09:22;5.18;;;4.60;;
26750;SDS011;14345;48.272;25.926;2023-06-19T09:11:56;5.78;;;5.05;;
26750;SDS011;14345;48.272;25.926;2023-06-19T09:17:01;5.38;;;4.68;;
26750;SDS011;14345;48.272;25.926;2023-06-19T09:19:27;5.03;;;4.53;;
26750;SDS011;14345;48.272;25.926;2023-06-19T09:21:58;7.50;;;5.03;;
26750;SDS011;14345;48.272;25.926;2023-06-19T09:24:32;6.70;;;5.55;;
26750;SDS011;14345;48.272;25.926;2023-06-19T09:27:32;5.97;;;4.40;;
26750;SDS011;14345;48.272;25.926;2023-06-19T09:29:51;4.40;;;3.92;;
26750;SDS011;14345;48.272;25.926;2023-06-19T09:32:17;4.57;;;4.18;;
26750;SDS011;14345;48.272;25.926;2023-06-19T09:34:44;4.70;;;4.30;;
26750;SDS011;14345;48.272;25.926;2023-06-19T09:37:10;4.22;;;3.83;;
26750;SDS011;14345;48.272;25.926;2023-06-19T09:39:36;4.18;;;3.78;;
26750;SDS011;14345;48.272;25.926;2023-06-19T09:42:03;5.68;;;4.00;;
26750;SDS011;14345;48.272;25.926;2023-06-19T09:44:30;4.38;;;3.97;;
26750;SDS011;14345;48.272;25.926;2023-06-19T09:46:57;3.97;;;3.58;;
26750;SDS011;14345;48.272;25.926;2023-06-19T09:49:25;4.88;;;3.83;;
26750;SDS011;14345;48.272;25.926;2023-06-19T09:51:54;4.03;;;3.63;;
26750;SDS011;14345;48.272;25.926;2023-06-19T09:54:20;3.90;;;3.60;;
26750;SDS011;14345;48.272;25.926;2023-06-19T09:56:46;4.55;;;3.80;;
26750;SDS011;14345;48.272;25.926;2023-06-19T09:59:16;4.32;;;3.92;;
26750;SDS011;14345;48.272;25.926;2023-06-19T10:01:43;4.10;;;3.70;;
26750;SDS011;14345;48.272;25.926;2023-06-19T10:04:10;4.40;;;3.45;;
26750;SDS011;14345;48.272;25.926;2023-06-19T10:06:44;5.78;;;3.30;;
26750;SDS011;14345;48.272;25.926;2023-06-19T10:09:10;3.95;;;3.55;;
26750;SDS011;14345;48.272;25.926;2023-06-19T10:14:12;5.00;;;3.67;;
26750;SDS011;14345;48.272;25.926;2023-06-19T10:16:39;3.90;;;3.38;;
26750;SDS011;14345;48.272;25.926;2023-06-19T10:19:16;4.50;;;4.10;;
26750;SDS011;14345;48.272;25.926;2023-06-19T10:21:45;5.07;;;3.80;;
26750;SDS011;14345;48.272;25.926;2023-06-19T10:24:14;3.90;;;3.60;;
26750;SDS011;14345;48.272;25.926;2023-06-19T10:26:40;3.35;;;3.10;;
26750;SDS011;14345;48.272;25.926;2023-06-19T10:29:15;3.33;;;3.10;;
26750;SDS011;14345;48.272;25.926;2023-06-19T10:31:42;3.35;;;3.03;;
26750;SDS011;14345;48.272;25.926;2023-06-19T10:34:10;3.95;;;3.65;;
26750;SDS011;14345;48.272;25.926;2023-06-19T10:36:37;4.85;;;3.50;;
26750;SDS011;14345;48.272;25.926;2023-06-19T10:39:03;5.43;;;3.50;;
26750;SDS011;14345;48.272;25.926;2023-06-19T10:41:29;3.83;;;3.53;;
26750;SDS011;14345;48.272;25.926;2023-06-19T10:46:23;4.00;;;3.70;;
26750;SDS011;14345;48.272;25.926;2023-06-19T10:48:52;4.28;;;3.60;;
26750;SDS011;14345;48.272;25.926;2023-06-19T10:51:25;5.90;;;3.90;;
26750;SDS011;14345;48.272;25.926;2023-06-19T10:53:53;3.75;;;3.42;;
26750;SDS011;14345;48.272;25.926;2023-06-19T10:56:20;4.22;;;3.83;;
26750;SDS011;14345;48.272;25.926;2023-06-19T10:58:46;4.18;;;3.88;;
26750;SDS011;14345;48.272;25.926;2023-06-19T11:01:12;3.72;;;3.42;;
26750;SDS011;14345;48.272;25.926;2023-06-19T11:03:38;7.72;;;3.58;;
26750;SDS011;14345;48.272;25.926;2023-06-19T11:06:04;4.25;;;3.78;;
26750;SDS011;14345;48.272;25.926;2023-06-19T11:08:30;4.40;;;4.00;;
26750;SDS011;14345;48.272;25.926;2023-06-19T11:10:56;4.30;;;3.92;;
26750;SDS011;14345;48.272;25.926;2023-06-19T11:13:23;4.43;;;4.03;;
26750;SDS011;14345;48.272;25.926;2023-06-19T11:15:49;4.50;;;4.10;;
26750;SDS011;14345;48.272;25.926;2023-06-19T11:18:16;4.93;;;4.43;;
26750;SDS011;14345;48.272;25.926;2023-06-19T11:20:49;5.00;;;4.50;;
26750;SDS011;14345;48.272;25.926;2023-06-19T11:23:15;4.80;;;4.40;;
26750;SDS011;14345;48.272;25.926;2023-06-19T11:25:42;5.07;;;4.68;;
26750;SDS011;14345;48.272;25.926;2023-06-19T11:28:14;6.70;;;4.65;;
26750;SDS011;14345;48.272;25.926;2023-06-19T11:30:43;5.00;;;4.07;;
26750;SDS011;14345;48.272;25.926;2023-06-19T11:33:19;4.20;;;3.80;;
26750;SDS011;14345;48.272;25.926;2023-06-19T11:35:51;5.07;;;4.13;;
26750;SDS011;14345;48.272;25.926;2023-06-19T11:38:21;4.20;;;3.70;;
26750;SDS011;14345;48.272;25.926;2023-06-19T11:40:48;5.10;;;3.42;;
26750;SDS011;14345;48.272;25.926;2023-06-19T11:43:27;4.07;;;3.53;;
26750;SDS011;14345;48.272;25.926;2023-06-19T11:45:53;4.28;;;3.67;;
26750;SDS011;14345;48.272;25.926;2023-06-19T11:48:26;3.35;;;3.10;;
26750;SDS011;14345;48.272;25.926;2023-06-19T11:50:52;3.42;;;3.13;;
26750;SDS011;14345;48.272;25.926;2023-06-19T11:53:22;2.90;;;2.70;;
26750;SDS011;14345;48.272;25.926;2023-06-19T11:55:49;3.70;;;3.00;;
26750;SDS011;14345;48.272;25.926;2023-06-19T11:58:15;4.60;;;3.30;;
26750;SDS011;14345;48.272;25.926;2023-06-19T12:00:42;3.42;;;2.90;;
26750;SDS011;14345;48.272;25.926;2023-06-19T12:03:08;3.55;;;2.88;;
26750;SDS011;14345;48.272;25.926;2023-06-19T12:05:35;3.53;;;3.22;;
26750;SDS011;14345;48.272;25.926;2023-06-19T12:08:01;2.85;;;2.60;;
26750;SDS011;14345;48.272;25.926;2023-06-19T12:10:28;5.30;;;2.80;;
26750;SDS011;14345;48.272;25.926;2023-06-19T12:12:54;2.97;;;2.53;;
26750;SDS011;14345;48.272;25.926;2023-06-19T12:15:20;4.10;;;2.38;;
26750;SDS011;14345;48.272;25.926;2023-06-19T12:17:48;3.72;;;3.30;;
26750;SDS011;14345;48.272;25.926;2023-06-19T12:20:14;2.50;;;2.30;;
26750;SDS011;14345;48.272;25.926;2023-06-19T12:22:40;3.45;;;2.63;;
26750;SDS011;14345;48.272;25.926;2023-06-19T12:25:07;3.75;;;2.67;;
26750;SDS011;14345;48.272;25.926;2023-06-19T12:27:33;2.67;;;2.40;;
26750;SDS011;14345;48.272;25.926;2023-06-19T12:29:59;3.10;;;2.70;;
26750;SDS011;14345;48.272;25.926;2023-06-19T12:32:25;3.22;;;2.35;;
26750;SDS011;14345;48.272;25.926;2023-06-19T12:34:52;3.47;;;2.42;;
26750;SDS011;14345;48.272;25.926;2023-06-19T12:37:19;2.60;;;2.40;;
26750;SDS011;14345;48.272;25.926;2023-06-19T12:39:45;3.42;;;2.40;;
26750;SDS011;14345;48.272;25.926;2023-06-19T12:42:12;2.60;;;2.15;;
26750;SDS011;14345;48.272;25.926;2023-06-19T12:44:39;3.35;;;2.53;;
26750;SDS011;14345;48.272;25.926;2023-06-19T12:47:05;2.60;;;2.40;;
26750;SDS011;14345;48.272;25.926;2023-06-19T12:49:31;2.85;;;2.65;;
26750;SDS011;14345;48.272;25.926;2023-06-19T12:51:57;4.22;;;2.30;;
26750;SDS011;14345;48.272;25.926;2023-06-19T12:54:23;2.38;;;2.17;;
26750;SDS011;14345;48.272;25.926;2023-06-19T12:56:49;2.35;;;2.15;;
26750;SDS011;14345;48.272;25.926;2023-06-19T12:59:16;2.50;;;2.30;;
26750;SDS011;14345;48.272;25.926;2023-06-19T13:01:42;2.10;;;2.00;;
26750;SDS011;14345;48.272;25.926;2023-06-19T13:04:08;2.85;;;2.60;;
26750;SDS011;14345;48.272;25.926;2023-06-19T13:06:35;4.85;;;2.42;;
26750;SDS011;14345;48.272;25.926;2023-06-19T13:09:01;2.40;;;2.20;;
26750;SDS011;14345;48.272;25.926;2023-06-19T13:11:28;3.08;;;2.10;;
26750;SDS011;14345;48.272;25.926;2023-06-19T13:13:54;2.70;;;2.13;;
26750;SDS011;14345;48.272;25.926;2023-06-19T13:16:20;2.97;;;2.15;;
26750;SDS011;14345;48.272;25.926;2023-06-19T13:18:46;3.45;;;3.00;;
26750;SDS011;14345;48.272;25.926;2023-06-19T13:21:12;2.95;;;2.75;;
26750;SDS011;14345;48.272;25.926;2023-06-19T13:23:40;4.55;;;2.65;;
26750;SDS011;14345;48.272;25.926;2023-06-19T13:26:06;2.80;;;2.60;;
26750;SDS011;14345;48.272;25.926;2023-06-19T13:28:32;4.07;;;2.80;;
26750;SDS011;14345;48.272;25.926;2023-06-19T13:30:58;3.13;;;2.70;;
26750;SDS011;14345;48.272;25.926;2023-06-19T13:33:25;3.28;;;2.67;;
26750;SDS011;14345;48.272;25.926;2023-06-19T13:35:51;2.83;;;2.58;;
26750;SDS011;14345;48.272;25.926;2023-06-19T13:38:17;2.60;;;2.40;;
26750;SDS011;14345;48.272;25.926;2023-06-19T13:40:43;2.70;;;2.50;;
26750;SDS011;14345;48.272;25.926;2023-06-19T13:43:09;2.60;;;2.40;;
26750;SDS011;14345;48.272;25.926;2023-06-19T13:45:35;3.58;;;2.47;;
26750;SDS011;14345;48.272;25.926;2023-06-19T13:48:03;4.32;;;2.65;;
26750;SDS011;14345;48.272;25.926;2023-06-19T13:50:29;2.20;;;2.10;;
26750;SDS011;14345;48.272;25.926;2023-06-19T13:52:57;3.55;;;3.22;;
26750;SDS011;14345;48.272;25.926;2023-06-19T13:55:23;2.63;;;2.42;;
26750;SDS011;14345;48.272;25.926;2023-06-19T13:57:49;3.03;;;2.40;;
26750;SDS011;14345;48.272;25.926;2023-06-19T14:00:15;4.05;;;2.85;;
26750;SDS011;14345;48.272;25.926;2023-06-19T14:02:41;2.72;;;2.53;;
26750;SDS011;14345;48.272;25.926;2023-06-19T14:05:08;2.80;;;2.53;;
26750;SDS011;14345;48.272;25.926;2023-06-19T14:07:34;2.70;;;2.50;;
26750;SDS011;14345;48.272;25.926;2023-06-19T14:10:02;2.85;;;2.65;;
26750;SDS011;14345;48.272;25.926;2023-06-19T14:12:28;2.88;;;2.67;;
26750;SDS011;14345;48.272;25.926;2023-06-19T14:14:55;3.40;;;3.10;;
26750;SDS011;14345;48.272;25.926;2023-06-19T14:17:21;3.00;;;2.70;;
26750;SDS011;14345;48.272;25.926;2023-06-19T14:19:48;3.15;;;2.85;;
26750;SDS011;14345;48.272;25.926;2023-06-19T14:22:14;5.50;;;4.60;;
26750;SDS011;14345;48.272;25.926;2023-06-19T14:24:40;4.18;;;3.40;;
26750;SDS011;14345;48.272;25.926;2023-06-19T14:27:06;2.78;;;2.55;;
26750;SDS011;14345;48.272;25.926;2023-06-19T14:29:32;3.42;;;2.42;;
26750;SDS011;14345;48.272;25.926;2023-06-19T14:31:58;3.80;;;2.83;;
26750;SDS011;14345;48.272;25.926;2023-06-19T14:34:24;3.50;;;2.33;;
26750;SDS011;14345;48.272;25.926;2023-06-19T14:36:50;2.45;;;2.25;;
26750;SDS011;14345;48.272;25.926;2023-06-19T14:39:16;4.22;;;2.58;;